Terminal Aerodrome Forecast
Issued by NWS

Home | Current Version | Previous Version | Text Only | Print | Product List | Glossary On
Versions: 1 2 3 4 5 6 7 8 9 10 11 12 13 14 15 16 17 18 19 20
681
FTUS44 KMAF 080520
TAFHOB
TAF
KHOB 080520Z 0806/0906 04021KT P6SM OVC014
      TEMPO 0813/0817 3SM -SN BR
     FM081800 04012KT P6SM OVC025
     FM090000 09007KT P6SM OVC040=

USA.gov is the U.S. government's official web portal to all federal, state and local government web resources and services.